createdAt,value
2023-03-23T15:58:13.845Z,13.14
2023-03-23T16:00:43.046Z,13.15
2023-03-23T16:03:18.106Z,13.14
2023-03-23T16:05:45.301Z,13.02
2023-03-23T16:08:12.483Z,13.06
2023-03-23T16:10:39.063Z,13.12
2023-03-23T16:13:06.213Z,13.23
2023-03-23T16:15:33.242Z,13.13
2023-03-23T16:18:00.007Z,13.10
2023-03-23T16:20:29.605Z,12.97
2023-03-23T16:22:56.547Z,13.00
2023-03-23T16:25:23.252Z,13.03
2023-03-23T16:27:52.221Z,12.96
2023-03-23T16:30:19.370Z,12.94
2023-03-23T16:32:47.075Z,13.02
2023-03-23T16:35:15.414Z,13.06
2023-03-23T16:37:50.617Z,12.96
2023-03-23T16:40:18.573Z,12.85
2023-03-23T16:42:45.289Z,12.80
2023-03-23T16:45:12.926Z,12.71
2023-03-23T16:47:40.383Z,12.72
2023-03-23T16:50:12.111Z,12.74
2023-03-23T16:52:46.232Z,12.58
2023-03-23T16:55:16.349Z,12.56
2023-03-23T16:57:43.550Z,12.66
2023-03-23T17:00:20.033Z,12.62
2023-03-23T17:02:52.045Z,12.58
2023-03-23T17:05:22.779Z,12.58
2023-03-23T17:07:49.374Z,12.65
2023-03-23T17:10:16.865Z,12.55
2023-03-23T17:12:44.222Z,12.58
2023-03-23T17:15:11.453Z,12.64
2023-03-23T17:17:38.186Z,12.54
2023-03-23T17:20:06.469Z,12.56
2023-03-23T17:22:33.136Z,12.57
2023-03-23T17:24:59.928Z,12.51
2023-03-23T17:27:27.366Z,12.39
2023-03-23T17:29:53.944Z,12.42
2023-03-23T17:32:21.838Z,12.37
2023-03-23T17:34:48.488Z,12.30
2023-03-23T17:37:15.653Z,12.33
2023-03-23T17:39:44.450Z,12.25
2023-03-23T17:42:11.853Z,12.17
2023-03-23T17:44:38.598Z,12.19
2023-03-23T17:47:08.261Z,12.19
2023-03-23T17:49:35.427Z,12.14
2023-03-23T17:52:07.924Z,12.16
2023-03-23T17:54:34.602Z,12.17
2023-03-23T17:57:03.902Z,12.15
2023-03-23T17:59:31.100Z,12.12
2023-03-23T18:01:58.070Z,12.09
2023-03-23T18:04:26.990Z,12.07
2023-03-23T18:06:57.719Z,12.13
2023-03-23T18:09:25.705Z,12.13
2023-03-23T18:11:53.066Z,12.14
2023-03-23T18:14:20.304Z,12.14
2023-03-23T18:17:41.807Z,12.12
2023-03-23T18:20:09.157Z,12.03
2023-03-23T18:22:36.276Z,12.08
2023-03-23T18:25:05.206Z,12.09
2023-03-23T18:27:32.479Z,12.07
2023-03-23T18:29:59.177Z,12.02
2023-03-23T18:32:27.998Z,12.05
2023-03-23T18:34:56.022Z,12.04
2023-03-23T18:37:22.872Z,12.01
2023-03-23T18:39:49.557Z,12.03
2023-03-23T18:42:16.298Z,11.97
2023-03-23T18:44:43.156Z,12.00
2023-03-23T18:47:09.804Z,11.88
2023-03-23T18:49:36.915Z,11.83
2023-03-23T18:52:04.446Z,11.78
2023-03-23T18:54:34.774Z,11.77
2023-03-23T18:57:03.084Z,11.73
2023-03-23T18:59:34.668Z,11.73
2023-03-23T19:02:07.701Z,11.72
2023-03-23T19:04:34.469Z,11.66
2023-03-23T19:07:01.980Z,11.67
2023-03-23T19:09:30.441Z,11.68
2023-03-23T19:11:57.276Z,11.58
2023-03-23T19:14:24.131Z,11.61
2023-03-23T19:16:52.375Z,11.60
2023-03-23T19:19:19.921Z,11.55
2023-03-23T19:21:47.285Z,11.55
2023-03-23T19:24:14.317Z,11.52
2023-03-23T19:26:43.467Z,11.49
2023-03-23T19:31:45.740Z,11.41
2023-03-23T19:34:14.172Z,11.39
2023-03-23T19:36:41.108Z,11.38
2023-03-23T19:39:08.858Z,11.31
2023-03-23T19:41:36.333Z,11.32
2023-03-23T19:44:04.128Z,11.31
2023-03-23T19:46:32.089Z,11.29
2023-03-23T19:48:59.430Z,11.23
2023-03-23T19:51:27.592Z,11.28
2023-03-23T19:53:57.146Z,11.27
2023-03-23T19:56:24.873Z,11.14
2023-03-23T19:58:52.352Z,11.22
2023-03-23T20:01:19.455Z,11.26
2023-03-23T20:03:46.588Z,11.26
2023-03-23T20:06:15.200Z,11.33
2023-03-23T20:08:44.725Z,11.37
2023-03-23T20:11:14.418Z,11.37
2023-03-23T20:13:41.614Z,11.32
2023-03-23T20:16:09.272Z,11.36
2023-03-23T20:18:37.921Z,11.37
2023-03-23T20:21:07.422Z,11.37
2023-03-23T20:23:38.466Z,11.39
2023-03-23T20:26:06.911Z,11.43
2023-03-23T20:28:33.979Z,11.40
2023-03-23T20:31:21.126Z,11.33
2023-03-23T20:34:02.502Z,11.33
2023-03-23T20:36:57.799Z,11.23
2023-03-23T20:39:26.584Z,11.26
2023-03-23T20:41:54.717Z,11.25
2023-03-23T20:44:25.337Z,11.24
2023-03-23T20:46:53.167Z,11.24
2023-03-23T20:49:20.905Z,11.19
2023-03-23T20:51:48.556Z,11.21
2023-03-23T20:54:16.258Z,11.21
2023-03-23T20:56:48.283Z,11.19
2023-03-23T20:59:15.783Z,11.23
2023-03-23T21:01:42.845Z,11.20
2023-03-23T21:04:15.199Z,11.17
2023-03-23T21:06:43.787Z,11.14
2023-03-23T21:09:10.481Z,11.17
2023-03-23T21:11:37.361Z,11.18
2023-03-23T21:14:05.215Z,11.20
2023-03-23T21:16:32.063Z,11.10
2023-03-23T21:18:59.020Z,11.03
2023-03-23T21:21:27.410Z,11.10
2023-03-23T21:23:55.641Z,11.13
2023-03-23T21:26:25.101Z,11.16
2023-03-23T21:28:54.258Z,11.10
2023-03-23T21:31:23.474Z,11.17
2023-03-23T21:33:50.499Z,11.13
2023-03-23T21:36:17.291Z,11.12
2023-03-23T21:38:44.803Z,11.12
2023-03-23T21:41:14.381Z,11.14
2023-03-23T21:43:44.465Z,11.11
2023-03-23T21:46:14.118Z,11.08
2023-03-23T21:48:41.588Z,11.09
2023-03-23T21:51:10.083Z,11.14
2023-03-23T21:53:37.189Z,11.09
2023-03-23T21:56:09.685Z,11.08
2023-03-23T21:58:37.856Z,11.07
2023-03-23T22:01:05.449Z,11.06
2023-03-23T22:03:33.260Z,11.03
2023-03-23T22:06:09.575Z,11.02
2023-03-23T22:08:37.576Z,11.01
2023-03-23T22:11:13.395Z,11.05
2023-03-23T22:13:41.523Z,11.01
2023-03-23T22:16:14.835Z,10.98
2023-03-23T22:18:43.414Z,11.01
2023-03-23T22:21:11.218Z,11.03
2023-03-23T22:23:39.145Z,11.00
2023-03-23T22:26:07.632Z,10.99
2023-03-23T22:28:37.151Z,10.94
2023-03-23T22:31:13.637Z,10.92
2023-03-23T22:33:40.543Z,10.89
2023-03-23T22:36:07.818Z,10.87
2023-03-23T22:38:42.189Z,10.94
2023-03-23T22:41:11.051Z,10.91
2023-03-23T22:43:38.068Z,10.85
2023-03-23T22:46:05.778Z,10.86
2023-03-23T22:48:32.739Z,10.87
2023-03-23T22:50:59.714Z,10.86
2023-03-23T22:53:26.862Z,10.87
2023-03-23T22:55:55.761Z,10.80
2023-03-23T22:58:23.882Z,10.73
2023-03-23T23:00:57.003Z,10.72
2023-03-23T23:03:23.903Z,10.70
2023-03-23T23:05:52.010Z,10.66
2023-03-23T23:08:19.329Z,10.68
2023-03-23T23:10:48.920Z,10.64
2023-03-23T23:13:15.833Z,10.64
2023-03-23T23:15:45.734Z,10.60
2023-03-23T23:18:12.612Z,10.55
2023-03-23T23:20:41.090Z,10.57
2023-03-23T23:23:08.629Z,10.57
2023-03-23T23:25:35.794Z,10.55
2023-03-23T23:28:04.065Z,10.53
2023-03-23T23:30:31.553Z,10.42
2023-03-23T23:32:58.937Z,10.44
2023-03-23T23:35:26.473Z,10.44
2023-03-23T23:37:53.727Z,10.42
2023-03-23T23:40:20.763Z,10.38
2023-03-23T23:42:49.891Z,10.38
2023-03-23T23:45:17.548Z,10.35
2023-03-23T23:47:45.652Z,10.36
2023-03-23T23:50:14.115Z,10.35
2023-03-23T23:52:42.633Z,10.34
2023-03-23T23:55:11.065Z,10.32
2023-03-23T23:57:38.004Z,10.31
